Time;durP1;ratioP1;P1;durP2;ratioP2;P2;SDS_P1;SDS_P2;PMS_P1;PMS_P2;Temp;Humidity;BMP_temperature;BMP_pressure;BME280_temperature;BME280_humidity;BME280_pressure;Samples;Min_cycle;Max_cycle;Signal;HPM_P1;HPM_P2
2022/11/28 00:01:34;;;;;;;0.10;0.10;;;;;;;6.79;100.00;100953.16;4965362;28;20089;-74
2022/11/28 00:04:00;;;;;;;0.10;0.10;;;;;;;6.82;100.00;100934.28;4958131;28;20042;-74
2022/11/28 00:06:26;;;;;;;0.10;0.10;;;;;;;6.76;100.00;100937.31;4962923;28;20206;-73
2022/11/28 00:08:51;;;;;;;0.10;0.10;;;;;;;6.82;100.00;100955.63;4962105;28;20460;-73
2022/11/28 00:11:17;;;;;;;0.20;0.20;;;;;;;6.76;100.00;100953.34;4959000;28;20077;-73
2022/11/28 00:13:44;;;;;;;0.10;0.10;;;;;;;6.77;100.00;100936.38;4934114;28;20069;-74
2022/11/28 00:16:15;;;;;;;0.10;0.10;;;;;;;6.57;100.00;100942.94;4948471;28;20035;-72
2022/11/28 00:18:40;;;;;;;0.10;0.10;;;;;;;6.91;100.00;100940.88;4947835;28;20354;-73
2022/11/28 00:21:11;;;;;;;0.10;0.10;;;;;;;6.88;100.00;100933.94;4967031;28;20525;-73
2022/11/28 00:23:36;;;;;;;0.10;0.10;;;;;;;6.87;100.00;100899.34;4949568;28;20053;-73
2022/11/28 00:26:10;;;;;;;0.10;0.10;;;;;;;6.86;100.00;100937.66;4955221;28;20462;-73
2022/11/28 00:28:35;;;;;;;0.20;0.20;;;;;;;6.52;100.00;100897.81;4949620;28;20019;-72
2022/11/28 00:31:01;;;;;;;0.10;0.10;;;;;;;6.48;100.00;100917.66;4965226;28;20065;-73
2022/11/28 00:33:26;;;;;;;0.10;0.10;;;;;;;6.62;100.00;100910.63;4955703;28;20481;-72
2022/11/28 00:35:58;;;;;;;0.10;0.10;;;;;;;6.76;100.00;100942.66;4965588;28;20042;-74
2022/11/28 00:38:23;;;;;;;0.10;0.10;;;;;;;6.63;100.00;100923.84;4965855;28;20051;-72
2022/11/28 00:40:57;;;;;;;0.10;0.10;;;;;;;6.96;100.00;100921.94;4948197;28;20027;-73
2022/11/28 00:43:22;;;;;;;0.10;0.10;;;;;;;6.95;100.00;100921.06;4959137;28;20071;-73
2022/11/28 00:45:47;;;;;;;0.10;0.10;;;;;;;6.84;100.00;100894.19;4949033;28;20582;-73
2022/11/28 00:48:13;;;;;;;0.10;0.10;;;;;;;6.78;100.00;100887.38;4949878;28;20034;-73
2022/11/28 00:50:38;;;;;;;0.10;0.10;;;;;;;6.78;100.00;100891.88;4965485;28;20039;-73
2022/11/28 00:53:03;;;;;;;0.10;0.10;;;;;;;6.76;100.00;100891.97;4936415;28;20066;-73
2022/11/28 00:55:29;;;;;;;0.10;0.10;;;;;;;7.05;100.00;100911.53;4964897;28;20457;-73
2022/11/28 00:57:54;;;;;;;0.10;0.10;;;;;;;7.07;100.00;100911.44;4962487;28;20348;-73
2022/11/28 01:00:20;;;;;;;0.43;0.10;;;;;;;6.97;100.00;100892.47;4965661;28;20477;-74
2022/11/28 01:02:45;;;;;;;0.10;0.10;;;;;;;6.97;100.00;100916.47;4964248;28;20058;-73
2022/11/28 01:05:10;;;;;;;0.10;0.10;;;;;;;6.96;100.00;100904.09;4965916;28;20038;-73
2022/11/28 01:07:41;;;;;;;0.10;0.10;;;;;;;7.14;100.00;100902.09;4946411;28;20472;-74
2022/11/28 01:10:06;;;;;;;0.10;0.10;;;;;;;6.79;100.00;100883.75;4964433;28;20109;-73
2022/11/28 01:12:32;;;;;;;0.10;0.10;;;;;;;7.17;100.00;100893.03;4956314;28;20039;-73
2022/11/28 01:14:58;;;;;;;0.10;0.10;;;;;;;6.99;100.00;100897.72;4951899;28;20414;-73
2022/11/28 01:17:23;;;;;;;0.10;0.10;;;;;;;7.03;100.00;100885.88;4950420;28;20141;-73
2022/11/28 01:19:49;;;;;;;0.10;0.10;;;;;;;7.28;100.00;100889.69;4966757;28;20029;-73
2022/11/28 01:22:14;;;;;;;0.10;0.10;;;;;;;7.31;100.00;100894.81;4963824;28;20039;-73
2022/11/28 01:24:39;;;;;;;0.10;0.10;;;;;;;7.27;100.00;100910.19;4953135;28;20472;-72
2022/11/28 01:27:05;;;;;;;0.10;0.10;;;;;;;7.37;100.00;100881.09;4968333;28;20048;-73
2022/11/28 01:29:30;;;;;;;0.10;0.10;;;;;;;7.43;100.00;100893.19;4936798;28;20030;-73
2022/11/28 01:31:56;;;;;;;0.10;0.10;;;;;;;7.30;100.00;100888.63;4961844;28;20069;-73
2022/11/28 01:34:21;;;;;;;0.00;0.00;;;;;;;7.10;100.00;100891.72;4969924;28;20039;-72
2022/11/28 01:36:47;;;;;;;0.10;0.10;;;;;;;7.28;100.00;100903.06;4950133;28;20035;-74
2022/11/28 01:39:14;;;;;;;0.10;0.10;;;;;;;7.15;100.00;100906.47;4930617;28;20061;-73
2022/11/28 01:41:39;;;;;;;0.10;0.10;;;;;;;7.41;100.00;100892.44;4968145;28;20030;-75
2022/11/28 01:44:14;;;;;;;0.10;0.10;;;;;;;7.38;100.00;100898.00;4969247;28;20452;-74
2022/11/28 01:46:39;;;;;;;0.10;0.10;;;;;;;7.18;100.00;100890.28;4968338;28;20034;-75
2022/11/28 01:49:10;;;;;;;0.10;0.10;;;;;;;7.11;100.00;100896.94;4968388;28;20043;-72
2022/11/28 01:51:35;;;;;;;0.10;0.10;;;;;;;7.38;100.00;100898.81;4961554;28;20035;-73
2022/11/28 01:54:01;;;;;;;0.10;0.10;;;;;;;7.31;100.00;100892.16;4935142;28;20464;-73
2022/11/28 01:56:31;;;;;;;0.10;0.10;;;;;;;7.09;100.00;100890.84;4955614;28;20031;-72
2022/11/28 01:59:03;;;;;;;0.10;0.10;;;;;;;7.40;100.00;100894.25;4945750;28;20385;-73
2022/11/28 02:01:28;;;;;;;0.10;0.10;;;;;;;7.31;100.00;100898.38;4952133;28;20045;-72
2022/11/28 02:03:54;;;;;;;0.10;0.10;;;;;;;7.54;100.00;100901.38;4943352;28;20466;-73
2022/11/28 02:06:21;;;;;;;0.10;0.10;;;;;;;7.34;100.00;100900.84;4950008;28;20101;-72
2022/11/28 02:08:50;;;;;;;0.10;0.10;;;;;;;7.14;100.00;100875.38;4952300;28;20035;-72
2022/11/28 02:11:48;;;;;;;0.10;0.10;;;;;;;7.17;100.00;100883.22;4941909;28;20031;-74
2022/11/28 02:14:26;;;;;;;0.10;0.10;;;;;;;7.01;100.00;100894.00;4970045;28;20085;-73
2022/11/28 02:17:26;;;;;;;0.10;0.10;;;;;;;7.10;100.00;100876.53;4949422;28;20117;-72
2022/11/28 02:20:13;;;;;;;0.10;0.10;;;;;;;6.90;100.00;100869.75;4940494;28;20043;-72
2022/11/28 02:23:07;;;;;;;0.10;0.10;;;;;;;6.96;100.00;100868.53;4950458;28;20030;-72
2022/11/28 02:26:03;;;;;;;0.10;0.10;;;;;;;6.88;100.00;100861.88;4967714;28;20039;-72
2022/11/28 02:28:42;;;;;;;0.10;0.10;;;;;;;7.01;100.00;100874.47;4950469;28;20061;-72
2022/11/28 02:31:19;;;;;;;0.10;0.10;;;;;;;6.79;100.00;100869.59;4949569;28;20026;-72
2022/11/28 02:33:49;;;;;;;0.10;0.10;;;;;;;7.18;100.00;100876.03;4963545;28;20478;-73
2022/11/28 02:36:34;;;;;;;0.10;0.10;;;;;;;6.90;100.00;100849.28;4946866;28;20469;-72
2022/11/28 02:39:43;;;;;;;0.10;0.10;;;;;;;6.97;100.00;100854.25;4957452;28;20477;-73
2022/11/28 02:42:20;;;;;;;0.10;0.10;;;;;;;7.02;100.00;100828.09;4937555;28;20082;-75
2022/11/28 02:44:58;;;;;;;0.17;0.17;;;;;;;7.18;100.00;100865.38;4960465;28;20030;-73
2022/11/28 02:47:32;;;;;;;0.10;0.10;;;;;;;7.25;100.00;100868.53;4954167;28;20070;-75
2022/11/28 02:50:16;;;;;;;0.10;0.10;;;;;;;7.07;100.00;100866.03;4950299;28;20027;-72
2022/11/28 02:52:49;;;;;;;;;;;;;;;6.98;100.00;100872.81;4961760;28;20469;-74
2022/11/28 02:55:15;;;;;;;0.10;0.10;;;;;;;6.81;100.00;100830.31;4949972;28;19922;-72
2022/11/28 02:57:45;;;;;;;0.10;0.10;;;;;;;7.03;100.00;100870.72;4930073;28;20042;-73
2022/11/28 03:00:28;;;;;;;0.10;0.10;;;;;;;6.97;100.00;100865.75;4952410;28;20034;-73
2022/11/28 03:02:59;;;;;;;0.10;0.10;;;;;;;6.97;100.00;100870.25;4966168;28;20030;-73
2022/11/28 03:05:56;;;;;;;0.10;0.10;;;;;;;6.88;100.00;100863.69;4966025;28;20034;-72
2022/11/28 03:08:47;;;;;;;0.10;0.10;;;;;;;6.74;100.00;100836.03;4957569;28;20034;-72
2022/11/28 03:11:33;;;;;;;0.10;0.10;;;;;;;7.01;100.00;100866.44;4956163;28;20031;-72
2022/11/28 03:14:20;;;;;;;0.10;0.10;;;;;;;6.90;100.00;100862.63;4945063;28;20035;-72
2022/11/28 03:16:53;;;;;;;0.10;0.10;;;;;;;6.84;100.00;100830.97;4965697;28;20113;-72
2022/11/28 03:19:24;;;;;;;0.10;0.10;;;;;;;6.71;100.00;100859.38;4938067;28;20034;-71
2022/11/28 03:22:09;;;;;;;0.10;0.10;;;;;;;7.02;100.00;100862.78;4942863;28;20321;-72
2022/11/28 03:24:51;;;;;;;0.10;0.10;;;;;;;7.16;100.00;100859.25;4972764;28;20033;-72
2022/11/28 03:27:26;;;;;;;0.13;0.13;;;;;;;6.93;100.00;100847.38;4948333;28;20034;-72
2022/11/28 03:29:54;;;;;;;0.10;0.10;;;;;;;6.85;100.00;100864.72;4943106;28;20030;-71
2022/11/28 03:32:39;;;;;;;0.10;0.10;;;;;;;6.90;100.00;100848.41;4949642;28;20026;-72
2022/11/28 03:35:09;;;;;;;0.10;0.10;;;;;;;7.12;100.00;100858.59;4949657;28;20026;-72
2022/11/28 03:37:38;;;;;;;0.10;0.10;;;;;;;7.05;100.00;100862.59;4945963;28;20035;-73
2022/11/28 03:40:08;;;;;;;0.10;0.10;;;;;;;7.09;100.00;100863.28;4934104;28;20469;-72
2022/11/28 03:42:39;;;;;;;0.10;0.10;;;;;;;6.97;100.00;100855.09;4930953;28;20125;-72
2022/11/28 03:45:11;;;;;;;0.17;0.17;;;;;;;6.74;100.00;100844.03;4942490;28;20027;-72
2022/11/28 03:47:45;;;;;;;0.10;0.10;;;;;;;6.77;100.00;100858.97;4940247;28;20096;-72
2022/11/28 03:50:16;;;;;;;0.10;0.10;;;;;;;6.89;100.00;100854.69;4950723;28;20045;-72
2022/11/28 03:53:03;;;;;;;0.10;0.10;;;;;;;6.59;100.00;100834.31;4947790;28;20062;-72
2022/11/28 03:55:34;;;;;;;0.10;0.10;;;;;;;7.05;100.00;100849.25;4955686;28;20461;-74
2022/11/28 03:58:04;;;;;;;0.10;0.10;;;;;;;6.92;100.00;100843.84;4946701;28;20541;-73
2022/11/28 04:00:31;;;;;;;0.10;0.10;;;;;;;6.64;100.00;100839.34;4952536;28;20025;-72
2022/11/28 04:03:25;;;;;;;0.10;0.10;;;;;;;6.60;100.00;100825.34;4947071;28;20121;-71
2022/11/28 04:06:06;;;;;;;0.10;0.10;;;;;;;6.80;100.00;100847.28;4947451;28;20030;-72
2022/11/28 04:08:37;;;;;;;0.10;0.10;;;;;;;6.85;100.00;100858.53;4947765;28;20039;-72
2022/11/28 04:11:15;;;;;;;0.15;0.15;;;;;;;6.56;100.00;100830.00;4953195;28;20027;-71
2022/11/28 04:13:45;;;;;;;0.10;0.10;;;;;;;6.73;100.00;100860.16;4959002;28;20305;-71
2022/11/28 04:16:13;;;;;;;0.10;0.10;;;;;;;6.86;100.00;100863.75;4960985;28;20029;-72
2022/11/28 04:18:53;;;;;;;0.10;0.10;;;;;;;6.72;100.00;100837.09;4967763;28;20042;-72
2022/11/28 04:21:40;;;;;;;0.10;0.10;;;;;;;6.80;100.00;100860.63;4966442;28;20130;-72
2022/11/28 04:24:10;;;;;;;0.10;0.10;;;;;;;6.88;100.00;100861.88;4960669;28;20115;-72
2022/11/28 04:26:40;;;;;;;0.10;0.10;;;;;;;6.81;100.00;100849.00;4948967;28;20030;-71
2022/11/28 04:29:09;;;;;;;0.10;0.10;;;;;;;6.75;100.00;100845.75;4965674;28;20039;-72
2022/11/28 04:31:35;;;;;;;0.10;0.10;;;;;;;6.90;100.00;100862.63;4949927;28;20031;-72
2022/11/28 04:34:05;;;;;;;0.10;0.10;;;;;;;6.65;100.00;100855.25;4931081;28;20041;-71
2022/11/28 04:36:34;;;;;;;0.10;0.10;;;;;;;7.01;100.00;100866.44;4963725;28;20393;-71
2022/11/28 04:39:00;;;;;;;0.10;0.10;;;;;;;6.86;100.00;100862.91;4960672;28;20038;-71
2022/11/28 04:41:32;;;;;;;0.10;0.10;;;;;;;6.95;100.00;100865.00;4948195;28;20026;-71
2022/11/28 04:44:09;;;;;;;0.10;0.10;;;;;;;6.77;100.00;100864.31;4948697;28;20811;-71
2022/11/28 04:46:39;;;;;;;0.10;0.10;;;;;;;6.68;100.00;100844.41;4964333;28;20461;-72
2022/11/28 04:49:04;;;;;;;0.10;0.10;;;;;;;6.60;100.00;100852.88;4950581;28;20082;-71
2022/11/28 04:51:41;;;;;;;0.10;0.10;;;;;;;6.57;100.00;100871.75;4968101;28;20067;-72
2022/11/28 04:54:14;;;;;;;0.10;0.10;;;;;;;6.80;100.00;100857.97;4968274;28;20046;-71
2022/11/28 04:56:43;;;;;;;0.10;0.10;;;;;;;6.60;100.00;100852.03;4948840;28;20382;-71
2022/11/28 04:59:10;;;;;;;0.10;0.10;;;;;;;6.61;100.00;100853.75;4952155;28;20027;-71
2022/11/28 05:01:35;;;;;;;0.10;0.10;;;;;;;6.59;100.00;100851.16;4967514;28;20058;-71
2022/11/28 05:04:01;;;;;;;0.10;0.10;;;;;;;6.66;100.00;100851.63;4955503;28;20031;-71
2022/11/28 05:06:30;;;;;;;0.10;0.10;;;;;;;6.82;100.00;100864.06;4949359;28;20108;-71
2022/11/28 05:08:55;;;;;;;0.10;0.10;;;;;;;6.86;100.00;100860.25;4969354;28;20026;-70
2022/11/28 05:11:20;;;;;;;0.10;0.10;;;;;;;6.88;100.00;100855.69;4969918;28;20057;-72
2022/11/28 05:13:46;;;;;;;0.10;0.10;;;;;;;6.85;100.00;100859.38;4955780;28;20763;-72
2022/11/28 05:16:11;;;;;;;0.10;0.10;;;;;;;6.74;100.00;100864.53;4968689;28;20031;-70
2022/11/28 05:18:37;;;;;;;0.10;0.10;;;;;;;6.93;100.00;100871.41;4952278;28;20095;-71
2022/11/28 05:21:05;;;;;;;0.10;0.10;;;;;;;6.78;100.00;100867.88;4969538;28;20023;-71
2022/11/28 05:23:30;;;;;;;0.10;0.10;;;;;;;6.59;100.00;100864.50;4967855;28;20043;-70
2022/11/28 05:25:56;;;;;;;0.10;0.10;;;;;;;6.75;100.00;100861.75;4968022;28;20531;-70
2022/11/28 05:28:21;;;;;;;0.20;0.20;;;;;;;6.73;100.00;100874.34;4968264;28;20456;-71
2022/11/28 05:30:56;;;;;;;0.10;0.10;;;;;;;6.55;100.00;100870.13;4967059;28;20054;-70
2022/11/28 05:33:21;;;;;;;0.10;0.10;;;;;;;6.74;100.00;100872.53;4964621;28;20062;-71
2022/11/28 05:35:46;;;;;;;0.10;0.10;;;;;;;6.90;100.00;100870.63;4966761;28;20595;-71
2022/11/28 05:38:11;;;;;;;0.10;0.10;;;;;;;6.42;100.00;100846.00;4966463;28;20038;-71
2022/11/28 05:40:42;;;;;;;0.10;0.10;;;;;;;6.50;100.00;100875.72;4967995;28;20027;-71
2022/11/28 05:43:08;;;;;;;0.15;0.15;;;;;;;6.70;100.00;100881.69;4965019;28;20215;-70
2022/11/28 05:45:33;;;;;;;0.10;0.10;;;;;;;6.73;100.00;100869.00;4964530;28;20035;-72
2022/11/28 05:47:58;;;;;;;0.10;0.10;;;;;;;6.75;100.00;100868.91;4963910;28;20026;-71
2022/11/28 05:50:24;;;;;;;0.10;0.10;;;;;;;6.64;100.00;100884.72;4967619;28;20077;-71
2022/11/28 05:52:49;;;;;;;0.10;0.10;;;;;;;6.93;100.00;100877.59;4965458;28;20668;-72
2022/11/28 05:55:14;;;;;;;0.10;0.10;;;;;;;6.87;100.00;100886.00;4964280;28;20038;-72
2022/11/28 05:57:39;;;;;;;0.10;0.10;;;;;;;6.68;100.00;100889.75;4966624;28;20049;-70
2022/11/28 06:00:05;;;;;;;0.10;0.10;;;;;;;6.55;100.00;100873.63;4965368;28;20480;-71
2022/11/28 06:02:31;;;;;;;0.17;0.17;;;;;;;6.75;100.00;100868.91;4963492;28;20039;-72
2022/11/28 06:04:56;;;;;;;0.10;0.10;;;;;;;6.59;100.00;100875.19;4945329;28;20038;-71
2022/11/28 06:07:21;;;;;;;0.10;0.10;;;;;;;6.56;100.00;100861.19;4966992;28;20062;-72
2022/11/28 06:09:47;;;;;;;0.10;0.10;;;;;;;6.86;100.00;100870.94;4961739;28;20150;-73
2022/11/28 06:12:12;;;;;;;0.10;0.10;;;;;;;6.78;100.00;100876.72;4962987;28;20030;-72
2022/11/28 06:14:37;;;;;;;0.10;0.10;;;;;;;6.70;100.00;100874.53;4966141;28;20030;-71
2022/11/28 06:17:03;;;;;;;0.10;0.10;;;;;;;6.66;100.00;100854.31;4964501;28;20367;-72
2022/11/28 06:19:28;;;;;;;0.10;0.10;;;;;;;6.63;100.00;100859.81;4963705;28;20070;-73
2022/11/28 06:21:55;;;;;;;0.10;0.10;;;;;;;6.90;100.00;100875.09;4946681;28;20031;-72
2022/11/28 06:24:20;;;;;;;0.10;0.10;;;;;;;6.84;100.00;100879.00;4964674;28;20418;-72
2022/11/28 06:26:45;;;;;;;0.10;0.10;;;;;;;6.85;100.00;100885.22;4965488;28;20025;-72
2022/11/28 06:29:11;;;;;;;0.10;0.10;;;;;;;6.75;100.00;100879.59;4967109;28;20043;-71
2022/11/28 06:31:36;;;;;;;0.10;0.10;;;;;;;6.77;100.00;100855.47;4965497;28;20049;-71
2022/11/28 06:34:01;;;;;;;0.10;0.10;;;;;;;6.72;100.00;100893.97;4949474;28;20176;-71
2022/11/28 06:36:27;;;;;;;0.10;0.10;;;;;;;6.48;100.00;100884.78;4962395;28;20038;-71
2022/11/28 06:38:53;;;;;;;0.10;0.10;;;;;;;6.67;100.00;100887.19;4965138;28;20121;-71
2022/11/28 06:41:19;;;;;;;0.10;0.10;;;;;;;6.75;100.00;100891.13;4966872;28;20053;-71
2022/11/28 06:43:44;;;;;;;0.10;0.10;;;;;;;6.75;100.00;100898.28;4941153;28;20117;-71
2022/11/28 06:46:13;;;;;;;0.10;0.10;;;;;;;6.58;100.00;100883.28;4966459;28;20050;-72
2022/11/28 06:48:39;;;;;;;0.10;0.10;;;;;;;6.59;100.00;100877.84;4966108;28;20066;-72
2022/11/28 06:51:05;;;;;;;0.10;0.10;;;;;;;6.81;100.00;100889.88;4968301;28;20141;-70
2022/11/28 06:53:31;;;;;;;0.10;0.10;;;;;;;6.64;100.00;100903.38;4965368;28;20058;-73
2022/11/28 06:55:56;;;;;;;0.10;0.10;;;;;;;6.54;100.00;100881.75;4963549;28;20121;-71
2022/11/28 06:58:21;;;;;;;0.10;0.10;;;;;;;6.72;100.00;100911.81;4961831;28;20034;-72
2022/11/28 07:00:47;;;;;;;0.10;0.10;;;;;;;6.68;100.00;100904.94;4964939;28;20034;-73
2022/11/28 07:03:12;;;;;;;0.10;0.10;;;;;;;6.58;100.00;100902.81;4965849;28;20109;-71
2022/11/28 07:05:38;;;;;;;0.10;0.10;;;;;;;6.62;100.00;100907.97;4961712;28;20022;-71
2022/11/28 07:08:03;;;;;;;0.10;0.10;;;;;;;6.78;100.00;100910.56;4944860;28;20026;-70
2022/11/28 07:10:29;;;;;;;0.10;0.10;;;;;;;6.72;100.00;100898.47;4941324;28;20082;-72
2022/11/28 07:12:55;;;;;;;0.10;0.10;;;;;;;6.81;100.00;100908.56;4947400;28;20505;-71
2022/11/28 07:15:21;;;;;;;0.10;0.10;;;;;;;6.76;100.00;100907.97;4958743;28;20377;-72
2022/11/28 07:17:46;;;;;;;0.10;0.10;;;;;;;6.81;100.00;100899.69;4968816;28;20073;-72
2022/11/28 07:20:12;;;;;;;0.10;0.10;;;;;;;6.79;100.00;100897.09;4960127;28;20439;-71
2022/11/28 07:22:37;;;;;;;0.10;0.10;;;;;;;6.76;100.00;100910.63;4963307;28;20030;-71
2022/11/28 07:25:03;;;;;;;0.10;0.10;;;;;;;6.78;100.00;100907.91;4960101;28;20027;-72
2022/11/28 07:27:28;;;;;;;0.10;0.10;;;;;;;6.72;100.00;100907.31;4962794;28;20046;-72
2022/11/28 07:29:54;;;;;;;0.10;0.10;;;;;;;6.58;100.00;100905.47;4960631;28;21341;-71
2022/11/28 07:32:19;;;;;;;0.10;0.10;;;;;;;6.79;100.00;100897.09;4963582;28;20488;-70
2022/11/28 07:34:44;;;;;;;0.10;0.10;;;;;;;6.63;100.00;100899.84;4966851;28;20027;-73
2022/11/28 07:37:10;;;;;;;0.10;0.10;;;;;;;6.77;100.00;100907.03;4945494;28;20038;-71
2022/11/28 07:39:35;;;;;;;0.10;0.10;;;;;;;6.64;100.00;100922.91;4950814;28;20054;-71
2022/11/28 07:42:00;;;;;;;0.10;0.10;;;;;;;6.58;100.00;100907.28;4945752;28;20113;-71
2022/11/28 07:44:26;;;;;;;0.13;0.13;;;;;;;6.51;100.00;100916.59;4965540;28;20039;-71
2022/11/28 07:46:51;;;;;;;0.10;0.10;;;;;;;6.62;100.00;100921.28;4962096;28;20117;-71
2022/11/28 07:49:16;;;;;;;0.10;0.10;;;;;;;6.57;100.00;100925.09;4962368;28;20035;-71
2022/11/28 07:51:42;;;;;;;0.10;0.10;;;;;;;6.51;100.00;100921.94;4946469;28;20037;-72
2022/11/28 07:54:08;;;;;;;0.10;0.10;;;;;;;6.70;100.00;100935.03;4956802;28;20129;-71
2022/11/28 07:56:35;;;;;;;0.10;0.10;;;;;;;6.71;100.00;100923.41;4957307;28;20118;-72
2022/11/28 07:59:01;;;;;;;0.10;0.10;;;;;;;6.65;100.00;100905.09;4960460;28;20034;-72
2022/11/28 08:01:29;;;;;;;0.10;0.10;;;;;;;6.80;100.00;100932.69;4961869;28;20035;-71
2022/11/28 08:03:55;;;;;;;0.10;0.10;;;;;;;6.93;100.00;100930.97;4962167;28;20027;-72
2022/11/28 08:06:23;;;;;;;0.10;0.10;;;;;;;6.64;100.00;100927.41;4964785;28;20511;-71
2022/11/28 08:08:50;;;;;;;0.10;0.10;;;;;;;6.60;100.00;100908.06;4965948;28;20033;-71
2022/11/28 08:11:17;;;;;;;0.10;0.10;;;;;;;6.59;100.00;100922.34;4960397;28;20026;-71
2022/11/28 08:13:43;;;;;;;0.10;0.10;;;;;;;6.70;100.00;100943.91;4953888;28;20026;-72
2022/11/28 08:16:12;;;;;;;0.10;0.10;;;;;;;6.65;100.00;100943.31;4944868;28;20092;-72
2022/11/28 08:18:37;;;;;;;0.10;0.10;;;;;;;6.60;100.00;100943.59;4964305;28;20085;-71
2022/11/28 08:21:08;;;;;;;0.10;0.10;;;;;;;6.80;100.00;100946.88;4968492;28;20469;-71
2022/11/28 08:23:34;;;;;;;0.10;0.10;;;;;;;6.66;100.00;100945.03;4948692;28;20027;-71
2022/11/28 08:26:01;;;;;;;0.10;0.10;;;;;;;6.77;100.00;100936.38;4967854;28;20062;-71
2022/11/28 08:28:27;;;;;;;0.10;0.10;;;;;;;6.70;100.00;100946.56;4971393;28;20290;-71
2022/11/28 08:30:52;;;;;;;0.20;0.20;;;;;;;6.70;100.00;100938.56;4973983;28;20030;-71
2022/11/28 08:33:17;;;;;;;0.20;0.20;;;;;;;6.75;100.00;100940.97;4943592;28;20133;-70
2022/11/28 08:35:43;;;;;;;0.10;0.10;;;;;;;6.75;100.00;100943.63;4961651;28;20063;-72
2022/11/28 08:38:08;;;;;;;0.10;0.10;;;;;;;6.92;100.00;100947.94;4971604;28;20477;-71
2022/11/28 08:40:33;;;;;;;0.10;0.10;;;;;;;6.81;100.00;100951.25;4966049;28;20054;-71
2022/11/28 08:42:59;;;;;;;0.10;0.10;;;;;;;6.69;100.00;100944.84;4968103;28;20038;-71
2022/11/28 08:45:24;;;;;;;0.10;0.10;;;;;;;6.85;100.00;100959.97;4965941;28;20085;-72
2022/11/28 08:47:49;;;;;;;0.10;0.10;;;;;;;6.84;100.00;100960.91;4965682;28;20078;-71
2022/11/28 08:50:15;;;;;;;0.10;0.10;;;;;;;6.93;100.00;100962.16;4971401;28;20041;-71
2022/11/28 08:52:40;;;;;;;0.10;0.10;;;;;;;6.73;100.00;100948.22;4972298;28;20465;-71
2022/11/28 08:55:05;;;;;;;0.10;0.10;;;;;;;6.73;100.00;100961.56;4957502;28;20109;-72
2022/11/28 08:57:31;;;;;;;0.10;0.10;;;;;;;6.72;100.00;100949.16;4966587;28;20035;-71
2022/11/28 08:59:56;;;;;;;0.10;0.10;;;;;;;6.77;100.00;100952.38;4964790;28;20023;-71
2022/11/28 09:02:21;;;;;;;0.10;0.10;;;;;;;6.84;100.00;100950.22;4966004;28;20712;-72
2022/11/28 09:04:46;;;;;;;0.10;0.10;;;;;;;6.84;100.00;100959.06;4950692;28;20038;-72
2022/11/28 09:07:12;;;;;;;0.10;0.10;;;;;;;6.90;100.00;100948.03;4951381;28;20405;-71
2022/11/28 09:09:37;;;;;;;0.10;0.10;;;;;;;6.94;100.00;100951.38;4970743;28;20039;-72
2022/11/28 09:12:02;;;;;;;0.10;0.10;;;;;;;6.84;100.00;100955.56;4951252;28;20061;-72
2022/11/28 09:14:28;;;;;;;0.10;0.10;;;;;;;6.88;100.00;100957.09;4964702;28;20034;-72
2022/11/28 09:16:53;;;;;;;0.10;0.10;;;;;;;7.05;100.00;100943.56;4962532;28;20042;-72
2022/11/28 09:19:18;;;;;;;0.10;0.10;;;;;;;7.04;100.00;100938.31;4969845;28;20086;-73
2022/11/28 09:21:44;;;;;;;0.10;0.10;;;;;;;7.14;100.00;100958.16;4952770;28;20113;-72
2022/11/28 09:24:10;;;;;;;0.10;0.10;;;;;;;7.00;100.00;100968.84;4967540;28;20035;-72
2022/11/28 09:26:35;;;;;;;0.10;0.10;;;;;;;7.17;100.00;100963.31;4948928;28;20105;-72
2022/11/28 09:29:01;;;;;;;0.10;0.10;;;;;;;7.03;100.00;100966.84;4948141;28;20384;-72
2022/11/28 09:31:26;;;;;;;0.10;0.10;;;;;;;6.84;100.00;100948.41;4962974;28;20924;-72
2022/11/28 09:33:52;;;;;;;0.10;0.10;;;;;;;6.96;100.00;100970.81;4948057;28;20041;-72
2022/11/28 09:36:20;;;;;;;0.10;0.10;;;;;;;7.09;100.00;100967.41;4952621;28;20045;-73
2022/11/28 09:38:45;;;;;;;0.10;0.10;;;;;;;6.85;100.00;100938.59;4947723;28;20031;-72
2022/11/28 09:41:40;;;;;;;0.10;0.10;;;;;;;7.04;100.00;100970.34;4961760;28;20049;-73
2022/11/28 09:44:15;;;;;;;0.10;0.10;;;;;;;6.98;100.00;100960.91;4967874;28;20183;-72
2022/11/28 09:46:41;;;;;;;0.10;0.10;;;;;;;7.02;100.00;100946.44;4960069;28;20180;-72
2022/11/28 09:49:34;;;;;;;0.10;0.10;;;;;;;7.09;100.00;100972.75;4949313;28;20492;-71
2022/11/28 09:52:03;;;;;;;0.10;0.10;;;;;;;7.26;100.00;100964.56;4953667;28;20478;-72
2022/11/28 09:54:46;;;;;;;0.10;0.10;;;;;;;7.12;100.00;100977.91;4963644;28;20176;-71
2022/11/28 09:57:17;;;;;;;0.10;0.10;;;;;;;7.20;100.00;100978.28;4964389;28;20037;-71
2022/11/28 09:59:42;;;;;;;0.10;0.10;;;;;;;7.14;100.00;100982.19;4963172;28;20023;-71
2022/11/28 10:02:23;;;;;;;0.10;0.10;;;;;;;7.17;100.00;100981.13;4947210;28;20544;-72
2022/11/28 10:05:34;;;;;;;0.10;0.10;;;;;;;7.16;100.00;100948.25;4952917;28;20481;-72
2022/11/28 10:08:09;;;;;;;0.10;0.10;;;;;;;7.25;100.00;100970.84;4931024;28;20077;-71
2022/11/28 10:10:47;;;;;;;0.10;0.10;;;;;;;7.16;100.00;100974.06;4963136;28;20461;-72
2022/11/28 10:13:34;;;;;;;0.10;0.10;;;;;;;7.25;100.00;100980.69;4960292;28;20042;-71
2022/11/28 10:16:03;;;;;;;0.10;0.10;;;;;;;7.25;100.00;100976.19;4961960;28;20602;-71
2022/11/28 10:18:45;;;;;;;0.10;0.10;;;;;;;7.23;100.00;100970.09;4952001;28;20230;-71
2022/11/28 10:21:34;;;;;;;0.10;0.10;;;;;;;7.40;100.00;100973.53;4966450;28;20018;-73
2022/11/28 10:24:03;;;;;;;0.10;0.10;;;;;;;7.22;100.00;100963.03;4946665;28;20034;-72
2022/11/28 10:26:35;;;;;;;0.10;0.10;;;;;;;7.29;100.00;100964.38;4950619;28;20504;-72
2022/11/28 10:29:06;;;;;;;0.10;0.10;;;;;;;7.45;100.00;100974.97;4961539;28;20023;-72
2022/11/28 10:31:41;;;;;;;0.10;0.10;;;;;;;7.35;100.00;100980.03;4963791;28;20520;-72
2022/11/28 10:34:26;;;;;;;0.10;0.10;;;;;;;7.36;100.00;100972.84;4964853;28;20463;-72
2022/11/28 10:37:23;;;;;;;0.03;0.03;;;;;;;7.52;100.00;100969.25;4948781;28;20030;-73
2022/11/28 10:39:49;;;;;;;0.10;0.10;;;;;;;7.44;100.00;100967.91;4961522;28;20023;-72
2022/11/28 10:42:20;;;;;;;0.10;0.10;;;;;;;7.60;100.00;100964.25;4943553;28;20045;-74
2022/11/28 10:44:55;;;;;;;0.10;0.10;;;;;;;7.64;100.00;100972.00;4957782;28;20030;-72
2022/11/28 10:47:49;;;;;;;0.10;0.10;;;;;;;7.55;100.00;100963.72;4948162;28;20084;-72
2022/11/28 10:51:03;;;;;;;0.10;0.10;;;;;;;7.50;100.00;100969.31;4964505;28;20094;-72
2022/11/28 10:53:54;;;;;;;0.10;0.10;;;;;;;7.55;100.00;100969.91;4954860;28;21393;-72
2022/11/28 10:56:35;;;;;;;0.00;0.00;;;;;;;7.62;100.00;100973.91;4967996;28;20042;-72
2022/11/28 10:59:12;;;;;;;0.10;0.10;;;;;;;7.64;100.00;100976.47;4957585;28;20037;-72
2022/11/28 11:01:39;;;;;;;0.10;0.10;;;;;;;7.68;100.00;100975.31;4948772;28;20034;-72
2022/11/28 11:04:05;;;;;;;0.00;0.00;;;;;;;7.57;100.00;100951.97;4948714;28;20173;-72
2022/11/28 11:06:30;;;;;;;0.10;0.10;;;;;;;7.65;100.00;100957.69;4959397;28;20034;-72
2022/11/28 11:08:56;;;;;;;0.10;0.10;;;;;;;7.59;100.00;100975.91;4960746;28;20378;-72
2022/11/28 11:11:26;;;;;;;0.10;0.10;;;;;;;7.74;100.00;100979.41;4965084;28;20343;-72
2022/11/28 11:14:10;;;;;;;0.10;0.10;;;;;;;7.58;100.00;100966.16;4964703;28;20034;-72
2022/11/28 11:16:57;;;;;;;0.10;0.10;;;;;;;7.55;100.00;100956.53;4950613;28;20030;-72
2022/11/28 11:19:28;;;;;;;0.10;0.10;;;;;;;7.60;100.00;100980.28;4961061;28;20381;-72
2022/11/28 11:22:03;;;;;;;0.00;0.00;;;;;;;7.71;100.00;100974.25;4943276;28;20026;-72
2022/11/28 11:24:29;;;;;;;0.10;0.10;;;;;;;7.56;100.00;100978.75;4943477;28;20038;-72
2022/11/28 11:27:02;;;;;;;0.10;0.10;;;;;;;7.62;100.00;100979.25;4950730;28;20026;-72
2022/11/28 11:29:27;;;;;;;0.10;0.10;;;;;;;7.70;100.00;100973.41;4960939;28;20503;-72
2022/11/28 11:31:53;;;;;;;0.10;0.10;;;;;;;7.65;100.00;100972.84;4963867;28;20031;-72
2022/11/28 11:34:20;;;;;;;0.00;0.00;;;;;;;7.50;100.00;100954.16;4970329;28;20287;-72
2022/11/28 11:36:45;;;;;;;0.10;0.10;;;;;;;7.64;100.00;100963.97;4945561;28;20494;-72
2022/11/28 11:39:11;;;;;;;0.10;0.10;;;;;;;7.65;100.00;100979.06;4959380;28;20061;-74